Terminal Aerodrome Forecast
Issued by NWS Charleston, WV

Current Version | Previous Version | Text Only | Print | Product List | Glossary Off
Versions: 1 2 3 4 5 6 7 8 9 10 11 12 13 14 15 16 17 18 19 20 21 22 23 24 25

000
FTUS41 KRLX 012112 AAA
TAFPKB
TAF AMD
KPKB 012112Z 0121/0218 VRB03KT P6SM -SHRA OVC025
     FM020200 36004KT 6SM SHRA BR OVC015
     FM020700 35004KT 6SM SHRA BR OVC008
     FM021000 VRB03KT 4SM BR OVC003
     FM021300 00000KT 5SM BR OVC008
     FM021500 00000KT 6SM BR OVC015
     FM021600 00000KT P6SM OVC015=

USA.gov is the U.S. government's official web portal to all federal, state and local government web resources and services.